METAR Data
IDs: Format: Raw Decoded Include TAF

Data at: 0204 UTC 12 May 2021

METAR for:KBCT (Boca Raton Arpt, FL, US)
Text:KBCT 120147Z 14006KT 10SM CLR 28/23 A3007
Temperature: 28.0°C ( 82°F)
Dewpoint: 23.0°C ( 73°F) [RH = 74%]
Pressure (altimeter):30.07 inches Hg (1018.4 mb)
Winds:from the SE (140 degrees) at 7 MPH (6 knots; 3.1 m/s)
Visibility:10 or more sm (16+ km)
Ceiling:at least 12,000 feet AGL
Clouds:sky clear below 12,000 feet AGL
Text:KBCT 120047Z 14006KT 10SM CLR 28/23 A3006
Temperature: 28.0°C ( 82°F)
Dewpoint: 23.0°C ( 73°F) [RH = 74%]
Pressure (altimeter):30.06 inches Hg (1018.0 mb)
Winds:from the SE (140 degrees) at 7 MPH (6 knots; 3.1 m/s)
Visibility:10 or more sm (16+ km)
Ceiling:at least 12,000 feet AGL
Clouds:sky clear below 12,000 feet AGL
Text:KBCT 112347Z 14008KT 10SM CLR 28/23 A3003
Temperature: 28.0°C ( 82°F)
Dewpoint: 23.0°C ( 73°F) [RH = 74%]
Pressure (altimeter):30.03 inches Hg (1017.0 mb)
Winds:from the SE (140 degrees) at 9 MPH (8 knots; 4.1 m/s)
Visibility:10 or more sm (16+ km)
Ceiling:at least 12,000 feet AGL
Clouds:sky clear below 12,000 feet AGL
Text:KBCT 112247Z 12010KT 10SM CLR 29/22 A3002
Temperature: 29.0°C ( 84°F)
Dewpoint: 22.0°C ( 72°F) [RH = 66%]
Pressure (altimeter):30.02 inches Hg (1016.7 mb)
Winds:from the ESE (120 degrees) at 12 MPH (10 knots; 5.1 m/s)
Visibility:10 or more sm (16+ km)
Ceiling:at least 12,000 feet AGL
Clouds:sky clear below 12,000 feet AGL
Text:KBCT 112147Z 14005KT 10SM CLR 30/22 A3002
Temperature: 30.0°C ( 86°F)
Dewpoint: 22.0°C ( 72°F) [RH = 62%]
Pressure (altimeter):30.02 inches Hg (1016.7 mb)
Winds:from the SE (140 degrees) at 6 MPH (5 knots; 2.6 m/s)
Visibility:10 or more sm (16+ km)
Ceiling:at least 12,000 feet AGL
Clouds:sky clear below 12,000 feet AGL
Text:KBCT 112047Z 14012KT 10SM CLR 32/22 A3002
Temperature: 32.0°C ( 90°F)
Dewpoint: 22.0°C ( 72°F) [RH = 56%]
Pressure (altimeter):30.02 inches Hg (1016.7 mb)
Winds:from the SE (140 degrees) at 14 MPH (12 knots; 6.2 m/s)
Visibility:10 or more sm (16+ km)
Ceiling:at least 12,000 feet AGL
Clouds:sky clear below 12,000 feet AGL
Text:KBCT 111947Z 14008KT 10SM CLR 32/22 A3002
Temperature: 32.0°C ( 90°F)
Dewpoint: 22.0°C ( 72°F) [RH = 56%]
Pressure (altimeter):30.02 inches Hg (1016.7 mb)
Winds:from the SE (140 degrees) at 9 MPH (8 knots; 4.1 m/s)
Visibility:10 or more sm (16+ km)
Ceiling:at least 12,000 feet AGL
Clouds:sky clear below 12,000 feet AGL
Text:KBCT 111853Z 13006G13KT 090V150 10SM CLR 33/23 A3005
Temperature: 33.0°C ( 91°F)
Dewpoint: 23.0°C ( 73°F) [RH = 56%]
Pressure (altimeter):30.05 inches Hg (1017.7 mb)
Winds:from the SE (130 degrees) at 7 MPH (6 knots; 3.1 m/s) gusting to 15 MPH (13 knots; 6.7 m/s)
Visibility:10 or more sm (16+ km)
Ceiling:at least 12,000 feet AGL
Clouds:sky clear below 12,000 feet AGL
Text:KBCT 111753Z 12009G17KT 090V150 10SM SCT030 33/21 A3007
Temperature: 33.0°C ( 91°F)
Dewpoint: 21.0°C ( 70°F) [RH = 49%]
Pressure (altimeter):30.07 inches Hg (1018.4 mb)
Winds:from the ESE (120 degrees) at 10 MPH (9 knots; 4.6 m/s) gusting to 20 MPH (17 knots; 8.7 m/s)
Visibility:10 or more sm (16+ km)
Ceiling:at least 12,000 feet AGL
Clouds: scattered clouds at 3000 feet AGL
Text:KBCT 111653Z 12010G15KT 090V150 10SM SCT030 32/22 A3009
Temperature: 32.0°C ( 90°F)
Dewpoint: 22.0°C ( 72°F) [RH = 56%]
Pressure (altimeter):30.09 inches Hg (1019.0 mb)
Winds:from the ESE (120 degrees) at 12 MPH (10 knots; 5.1 m/s) gusting to 17 MPH (15 knots; 7.7 m/s)
Visibility:10 or more sm (16+ km)
Ceiling:at least 12,000 feet AGL
Clouds: scattered clouds at 3000 feet AGL
Text:KBCT 111553Z 13010KT 090V150 10SM SCT032 32/22 A3011
Temperature: 32.0°C ( 90°F)
Dewpoint: 22.0°C ( 72°F) [RH = 56%]
Pressure (altimeter):30.11 inches Hg (1019.7 mb)
Winds:from the SE (130 degrees) at 12 MPH (10 knots; 5.1 m/s)
Visibility:10 or more sm (16+ km)
Ceiling:at least 12,000 feet AGL
Clouds: scattered clouds at 3200 feet AGL
Text:KBCT 111453Z 11008KT 090V150 10SM SCT025 32/23 A3011
Temperature: 32.0°C ( 90°F)
Dewpoint: 23.0°C ( 73°F) [RH = 59%]
Pressure (altimeter):30.11 inches Hg (1019.7 mb)
Winds:from the ESE (110 degrees) at 9 MPH (8 knots; 4.1 m/s)
Visibility:10 or more sm (16+ km)
Ceiling:at least 12,000 feet AGL
Clouds: scattered clouds at 2500 feet AGL
Text:KBCT 111353Z VRB03KT 10SM CLR 31/22 A3010
Temperature: 31.0°C ( 88°F)
Dewpoint: 22.0°C ( 72°F) [RH = 59%]
Pressure (altimeter):30.10 inches Hg (1019.4 mb)
Winds:variable direction winds at 3 MPH (3 knots; 1.5 m/s)
Visibility:10 or more sm (16+ km)
Ceiling:at least 12,000 feet AGL
Clouds:sky clear below 12,000 feet AGL
Text:KBCT 111253Z 00000KT 10SM CLR 29/23 A3010
Temperature: 29.0°C ( 84°F)
Dewpoint: 23.0°C ( 73°F) [RH = 70%]
Pressure (altimeter):30.10 inches Hg (1019.4 mb)
Winds:calm
Visibility:10 or more sm (16+ km)
Ceiling:at least 12,000 feet AGL
Clouds:sky clear below 12,000 feet AGL
Text:KBCT 111153Z 00000KT 10SM CLR 27/23 A3008
Temperature: 27.0°C ( 81°F)
Dewpoint: 23.0°C ( 73°F) [RH = 79%]
Pressure (altimeter):30.08 inches Hg (1018.7 mb)
Winds:calm
Visibility:10 or more sm (16+ km)
Ceiling:at least 12,000 feet AGL
Clouds:sky clear below 12,000 feet AGL
Text:KBCT 111053Z 33006KT 10SM FEW035 24/23 A3007
Temperature: 24.0°C ( 75°F)
Dewpoint: 23.0°C ( 73°F) [RH = 94%]
Pressure (altimeter):30.07 inches Hg (1018.4 mb)
Winds:from the NNW (330 degrees) at 7 MPH (6 knots; 3.1 m/s)
Visibility:10 or more sm (16+ km)
Ceiling:at least 12,000 feet AGL
Clouds: few clouds at 3500 feet AGL
Text:KBCT 110147Z 18008KT 10SM CLR 27/23 A3009
Temperature: 27.0°C ( 81°F)
Dewpoint: 23.0°C ( 73°F) [RH = 79%]
Pressure (altimeter):30.09 inches Hg (1019.0 mb)
Winds:from the S (180 degrees) at 9 MPH (8 knots; 4.1 m/s)
Visibility:10 or more sm (16+ km)
Ceiling:at least 12,000 feet AGL
Clouds:sky clear below 12,000 feet AGL
Text:KBCT 110047Z 18008KT 10SM CLR 27/23 A3007
Temperature: 27.0°C ( 81°F)
Dewpoint: 23.0°C ( 73°F) [RH = 79%]
Pressure (altimeter):30.07 inches Hg (1018.4 mb)
Winds:from the S (180 degrees) at 9 MPH (8 knots; 4.1 m/s)
Visibility:10 or more sm (16+ km)
Ceiling:at least 12,000 feet AGL
Clouds:sky clear below 12,000 feet AGL
Text:KBCT 102353Z 18008KT 10SM CLR 27/23 A3004
Temperature: 27.0°C ( 81°F)
Dewpoint: 23.0°C ( 73°F) [RH = 79%]
Pressure (altimeter):30.04 inches Hg (1017.4 mb)
Winds:from the S (180 degrees) at 9 MPH (8 knots; 4.1 m/s)
Visibility:10 or more sm (16+ km)
Ceiling:at least 12,000 feet AGL
Clouds:sky clear below 12,000 feet AGL
Text:KBCT 102253Z 19010G16KT 10SM CLR 29/22 A3002
Temperature: 29.0°C ( 84°F)
Dewpoint: 22.0°C ( 72°F) [RH = 66%]
Pressure (altimeter):30.02 inches Hg (1016.7 mb)
Winds:from the S (190 degrees) at 12 MPH (10 knots; 5.1 m/s) gusting to 18 MPH (16 knots; 8.2 m/s)
Visibility:10 or more sm (16+ km)
Ceiling:at least 12,000 feet AGL
Clouds:sky clear below 12,000 feet AGL
Text:KBCT 102153Z 19010G18KT 10SM FEW035 30/23 A3002
Temperature: 30.0°C ( 86°F)
Dewpoint: 23.0°C ( 73°F) [RH = 66%]
Pressure (altimeter):30.02 inches Hg (1016.7 mb)
Winds:from the S (190 degrees) at 12 MPH (10 knots; 5.1 m/s) gusting to 21 MPH (18 knots; 9.3 m/s)
Visibility:10 or more sm (16+ km)
Ceiling:at least 12,000 feet AGL
Clouds: few clouds at 3500 feet AGL
Text:KBCT 102053Z 19010G18KT 10SM SCT035 29/23 A3003
Temperature: 29.0°C ( 84°F)
Dewpoint: 23.0°C ( 73°F) [RH = 70%]
Pressure (altimeter):30.03 inches Hg (1017.0 mb)
Winds:from the S (190 degrees) at 12 MPH (10 knots; 5.1 m/s) gusting to 21 MPH (18 knots; 9.3 m/s)
Visibility:10 or more sm (16+ km)
Ceiling:at least 12,000 feet AGL
Clouds: scattered clouds at 3500 feet AGL
Text:KBCT 101953Z 16010G18KT 10SM SCT035 31/22 A3003
Temperature: 31.0°C ( 88°F)
Dewpoint: 22.0°C ( 72°F) [RH = 59%]
Pressure (altimeter):30.03 inches Hg (1017.0 mb)
Winds:from the SSE (160 degrees) at 12 MPH (10 knots; 5.1 m/s) gusting to 21 MPH (18 knots; 9.3 m/s)
Visibility:10 or more sm (16+ km)
Ceiling:at least 12,000 feet AGL
Clouds: scattered clouds at 3500 feet AGL
Text:KBCT 101853Z 16010G18KT 10SM SCT040 32/23 A3005
Temperature: 32.0°C ( 90°F)
Dewpoint: 23.0°C ( 73°F) [RH = 59%]
Pressure (altimeter):30.05 inches Hg (1017.7 mb)
Winds:from the SSE (160 degrees) at 12 MPH (10 knots; 5.1 m/s) gusting to 21 MPH (18 knots; 9.3 m/s)
Visibility:10 or more sm (16+ km)
Ceiling:at least 12,000 feet AGL
Clouds: scattered clouds at 4000 feet AGL
Text:KBCT 101753Z 16010G20KT 10SM SCT030 31/23 A3007
Temperature: 31.0°C ( 88°F)
Dewpoint: 23.0°C ( 73°F) [RH = 63%]
Pressure (altimeter):30.07 inches Hg (1018.4 mb)
Winds:from the SSE (160 degrees) at 12 MPH (10 knots; 5.1 m/s) gusting to 23 MPH (20 knots; 10.3 m/s)
Visibility:10 or more sm (16+ km)
Ceiling:at least 12,000 feet AGL
Clouds: scattered clouds at 3000 feet AGL
Text:KBCT 101653Z 14014G21KT 8SM VCTS SCT030 31/22 A3009
Temperature: 31.0°C ( 88°F)
Dewpoint: 22.0°C ( 72°F) [RH = 59%]
Pressure (altimeter):30.09 inches Hg (1019.0 mb)
Winds:from the SE (140 degrees) at 16 MPH (14 knots; 7.2 m/s) gusting to 24 MPH (21 knots; 10.8 m/s)
Visibility: 8 sm ( 13 km)
Ceiling:at least 12,000 feet AGL
Clouds: scattered clouds at 3000 feet AGL
Weather:VCTS (thunderstorm in vicinity)
Text:KBCT 101553Z 18015G22KT 120V180 8SM VCTS SCT030 32/22 A3009
Temperature: 32.0°C ( 90°F)
Dewpoint: 22.0°C ( 72°F) [RH = 56%]
Pressure (altimeter):30.09 inches Hg (1019.0 mb)
Winds:from the S (180 degrees) at 17 MPH (15 knots; 7.7 m/s) gusting to 25 MPH (22 knots; 11.3 m/s)
Visibility: 8 sm ( 13 km)
Ceiling:at least 12,000 feet AGL
Clouds: scattered clouds at 3000 feet AGL
Weather:VCTS (thunderstorm in vicinity)
Text:KBCT 101453Z 16015G21KT 120V180 10SM SCT030 31/22 A3009
Temperature: 31.0°C ( 88°F)
Dewpoint: 22.0°C ( 72°F) [RH = 59%]
Pressure (altimeter):30.09 inches Hg (1019.0 mb)
Winds:from the SSE (160 degrees) at 17 MPH (15 knots; 7.7 m/s) gusting to 24 MPH (21 knots; 10.8 m/s)
Visibility:10 or more sm (16+ km)
Ceiling:at least 12,000 feet AGL
Clouds: scattered clouds at 3000 feet AGL